Time;durP1;ratioP1;P1;durP2;ratioP2;P2;SDS_P1;SDS_P2;PMS_P1;PMS_P2;Temp;Humidity;BMP_temperature;BMP_pressure;BME280_temperature;BME280_humidity;BME280_pressure;Samples;Min_cycle;Max_cycle;Signal;HPM_P1;HPM_P2
2023/04/19 00:02:42;;;;;;;4.37;2.50;;;;;;;8.38;59.21;103133.06;6295288;28;20230;-72
2023/04/19 00:06:03;;;;;;;3.47;2.37;;;;;;;8.35;59.50;103135.91;6300930;28;20525;-71
2023/04/19 00:09:25;;;;;;;3.23;2.93;;;;;;;8.27;59.31;103123.19;6302731;28;20229;-71
2023/04/19 00:12:46;;;;;;;3.67;3.37;;;;;;;8.28;59.46;103117.00;6295471;28;20222;-71
2023/04/19 00:16:08;;;;;;;2.80;2.27;;;;;;;8.21;61.05;103120.97;6302348;28;20471;-72
2023/04/19 00:19:28;;;;;;;2.60;2.40;;;;;;;8.22;60.30;103109.50;6298503;28;20446;-72
2023/04/19 00:22:49;;;;;;;2.97;2.57;;;;;;;8.20;60.78;103114.00;6299890;28;20225;-72
2023/04/19 00:26:14;;;;;;;4.37;3.63;;;;;;;8.17;61.11;103116.81;6294848;28;20257;-71
2023/04/19 00:29:36;;;;;;;3.13;2.63;;;;;;;8.13;61.39;103117.97;6297231;28;20230;-71
2023/04/19 00:32:59;;;;;;;4.60;3.00;;;;;;;8.16;60.67;103104.59;6303018;27;20229;-71
2023/04/19 00:36:20;;;;;;;4.07;3.53;;;;;;;8.04;61.45;103111.50;6299426;27;20651;-72
2023/04/19 00:39:41;;;;;;;4.57;2.90;;;;;;;7.96;61.33;103103.25;6301781;28;20240;-71
2023/04/19 00:43:03;;;;;;;4.00;3.07;;;;;;;7.95;61.39;103108.59;6298859;28;20321;-71
2023/04/19 00:46:25;;;;;;;6.50;3.00;;;;;;;7.91;61.70;103107.94;6295641;28;20353;-71
2023/04/19 00:49:46;;;;;;;3.07;2.87;;;;;;;7.92;61.59;103106.16;6288189;28;20235;-72
2023/04/19 00:53:09;;;;;;;3.77;2.97;;;;;;;7.85;60.77;103100.44;6308067;27;20312;-71
2023/04/19 00:56:32;;;;;;;2.93;2.70;;;;;;;7.88;60.75;103098.47;6297842;27;20284;-72
2023/04/19 00:59:56;;;;;;;3.10;2.33;;;;;;;7.87;61.12;103101.19;6311415;28;20223;-71
2023/04/19 01:03:17;;;;;;;3.33;3.03;;;;;;;7.84;60.10;103104.88;6297031;27;21787;-71
2023/04/19 01:06:40;;;;;;;2.13;1.97;;;;;;;7.76;59.70;103103.63;6290391;28;20254;-71
2023/04/19 01:10:00;;;;;;;3.47;3.07;;;;;;;7.79;60.00;103104.28;6309880;27;20230;-71
2023/04/19 01:13:21;;;;;;;5.77;2.53;;;;;;;7.76;60.17;103098.38;6310989;27;20618;-71
2023/04/19 01:16:44;;;;;;;4.07;2.90;;;;;;;7.70;60.13;103106.63;6310592;27;20317;-71
2023/04/19 01:20:06;;;;;;;2.40;2.10;;;;;;;7.75;59.75;103102.78;6316252;27;20245;-70
2023/04/19 01:23:28;;;;;;;2.43;2.23;;;;;;;7.75;59.27;103100.16;6312817;27;20227;-71
2023/04/19 01:26:50;;;;;;;3.57;2.77;;;;;;;7.74;59.15;103105.50;6289223;28;20623;-71
2023/04/19 01:30:11;;;;;;;3.20;2.27;;;;;;;7.67;59.57;103105.06;6312820;27;20222;-70
2023/04/19 01:33:32;;;;;;;3.83;3.40;;;;;;;7.73;59.02;103101.19;6302451;27;20543;-70
2023/04/19 01:36:54;;;;;;;4.00;2.47;;;;;;;7.72;59.13;103108.22;6294249;28;20222;-71
2023/04/19 01:40:17;;;;;;;4.53;1.50;;;;;;;7.72;59.18;103104.75;6307410;27;20550;-70
2023/04/19 01:43:37;;;;;;;2.50;2.37;;;;;;;7.71;58.80;103103.91;6295916;27;20226;-71
2023/04/19 01:46:58;;;;;;;2.77;2.03;;;;;;;7.69;59.10;103105.78;6298799;27;21027;-70
2023/04/19 01:50:19;;;;;;;3.10;2.07;;;;;;;7.66;58.56;103100.75;6304653;27;20501;-71
2023/04/19 01:53:40;;;;;;;4.70;2.50;;;;;;;7.67;59.59;103101.59;6298170;27;20583;-70
2023/04/19 01:57:02;;;;;;;2.50;1.63;;;;;;;7.66;58.93;103092.84;6292996;27;20244;-70
2023/04/19 02:00:23;;;;;;;2.67;2.07;;;;;;;7.64;58.76;103086.84;6295337;28;20273;-71
2023/04/19 02:03:45;;;;;;;2.97;2.13;;;;;;;7.70;58.79;103082.97;6294892;27;20226;-71
2023/04/19 02:07:06;;;;;;;5.27;3.00;;;;;;;7.57;59.52;103082.06;6298356;27;21710;-71
2023/04/19 02:10:27;;;;;;;3.47;2.03;;;;;;;7.63;59.64;103081.69;6308591;27;20493;-71
2023/04/19 02:13:50;;;;;;;2.07;1.83;;;;;;;7.60;60.56;103082.72;6298462;27;20486;-70
2023/04/19 02:17:12;;;;;;;3.70;1.63;;;;;;;7.54;61.13;103088.34;6293476;28;20234;-71
2023/04/19 02:20:33;;;;;;;4.43;2.53;;;;;;;7.54;61.37;103088.34;6300955;28;21177;-71
2023/04/19 02:23:54;;;;;;;2.87;2.67;;;;;;;7.47;61.72;103092.28;6307668;27;20226;-71
2023/04/19 02:27:15;;;;;;;2.90;2.47;;;;;;;7.46;61.69;103083.53;6294540;27;20226;-70
2023/04/19 02:30:37;;;;;;;5.93;2.63;;;;;;;7.44;63.06;103090.69;6300117;28;20644;-71
2023/04/19 02:33:58;;;;;;;2.47;2.20;;;;;;;7.42;63.11;103091.72;6289001;28;20231;-71
2023/04/19 02:37:20;;;;;;;4.40;2.27;;;;;;;7.46;63.31;103093.19;6294118;28;20218;-71
2023/04/19 02:40:42;;;;;;;4.00;2.23;;;;;;;7.39;64.13;103089.28;6319808;27;20243;-70
2023/04/19 02:44:04;;;;;;;2.43;2.23;;;;;;;7.38;64.13;103085.81;6303633;27;20250;-70
2023/04/19 02:47:26;;;;;;;4.20;2.47;;;;;;;7.36;64.19;103087.69;6300173;27;20583;-71
2023/04/19 02:50:47;;;;;;;2.57;2.37;;;;;;;7.38;64.27;103080.56;6302804;27;20765;-70
2023/04/19 02:54:08;;;;;;;2.13;1.93;;;;;;;7.34;64.65;103081.66;6301562;27;20601;-70
2023/04/19 02:57:29;;;;;;;2.57;1.87;;;;;;;7.32;65.21;103082.69;6312456;27;20545;-70
2023/04/19 03:00:49;;;;;;;3.67;2.93;;;;;;;7.28;65.58;103083.81;6300632;27;20226;-70
2023/04/19 03:04:15;;;;;;;3.83;3.10;;;;;;;7.22;65.87;103081.56;6296024;28;20230;-70
2023/04/19 03:07:36;;;;;;;2.67;2.17;;;;;;;7.14;66.16;103069.72;6301995;27;20601;-71
2023/04/19 03:10:57;;;;;;;5.77;2.47;;;;;;;7.12;66.20;103074.22;6291617;28;20234;-71
2023/04/19 03:14:18;;;;;;;2.27;2.07;;;;;;;7.10;66.64;103076.09;6308198;28;20238;-70
2023/04/19 03:17:39;;;;;;;3.67;3.33;;;;;;;7.10;66.57;103076.09;6296905;28;20225;-70
2023/04/19 03:21:02;;;;;;;3.77;2.40;;;;;;;7.10;65.55;103073.47;6305929;28;20238;-69
2023/04/19 03:24:28;;;;;;;3.33;2.23;;;;;;;7.08;65.83;103061.38;6276095;28;20612;-71
2023/04/19 03:27:51;;;;;;;4.77;2.73;;;;;;;7.05;65.05;103067.66;6302143;28;20222;-70
2023/04/19 03:31:17;;;;;;;4.17;2.67;;;;;;;7.01;65.41;103065.28;6313940;28;21143;-70
2023/04/19 03:34:40;;;;;;;2.53;2.07;;;;;;;7.00;65.59;103051.34;6296595;28;20229;-71
2023/04/19 03:38:02;;;;;;;4.77;2.53;;;;;;;7.00;65.14;103048.72;6300732;28;20226;-70
2023/04/19 03:41:24;;;;;;;3.37;3.07;;;;;;;7.07;64.51;103057.91;6298181;28;20234;-70
2023/04/19 03:44:55;;;;;;;3.77;1.60;;;;;;;7.15;64.99;103052.19;6315262;28;20222;-70
2023/04/19 03:48:17;;;;;;;14.90;12.27;;;;;;;7.06;64.92;103044.84;6296375;28;20309;-71
2023/04/19 03:51:38;;;;;;;10.63;9.63;;;;;;;7.01;64.84;103045.13;6288115;28;20226;-70
2023/04/19 03:55:02;;;;;;;4.60;3.90;;;;;;;6.93;65.00;103042.13;6314680;28;20230;-70
2023/04/19 03:58:33;;;;;;;6.57;5.07;;;;;;;6.90;64.93;103047.56;6290820;28;20592;-69
2023/04/19 04:01:59;;;;;;;24.33;17.27;;;;;;;6.91;64.97;103044.00;6291408;28;20230;-71
2023/04/19 04:05:20;;;;;;;29.27;23.17;;;;;;;6.87;64.99;103052.97;6302472;28;20237;-69
2023/04/19 04:08:42;;;;;;;8.53;5.90;;;;;;;6.87;64.99;103050.34;6300477;27;20716;-69
2023/04/19 04:12:05;;;;;;;3.47;3.17;;;;;;;6.91;64.52;103040.53;6299033;27;20230;-70
2023/04/19 04:15:26;;;;;;;2.03;1.83;;;;;;;6.93;64.85;103038.66;6301428;28;20230;-70
2023/04/19 04:18:48;;;;;;;2.67;1.77;;;;;;;6.92;65.06;103035.19;6295051;27;20766;-70
2023/04/19 04:22:09;;;;;;;4.37;3.27;;;;;;;6.90;64.72;103033.59;6297233;27;21548;-70
2023/04/19 04:25:36;;;;;;;2.20;2.07;;;;;;;6.93;65.13;103033.41;6303703;28;20467;-70
2023/04/19 04:29:00;;;;;;;2.13;1.80;;;;;;;6.81;65.08;103029.72;6283043;27;20231;-71
2023/04/19 04:32:22;;;;;;;4.13;2.00;;;;;;;6.92;65.10;103039.59;6299069;27;20221;-71
2023/04/19 04:35:45;;;;;;;3.43;2.27;;;;;;;7.01;64.34;103041.66;6313911;27;20222;-70
2023/04/19 04:39:11;;;;;;;2.83;2.30;;;;;;;7.04;64.60;103039.69;6295244;27;20230;-70
2023/04/19 04:42:32;;;;;;;2.77;2.57;;;;;;;7.08;63.78;103042.97;6302672;27;20242;-71
2023/04/19 04:45:56;;;;;;;2.00;1.67;;;;;;;7.18;63.72;103033.63;6300599;28;20235;-70
2023/04/19 04:49:18;;;;;;;2.00;1.90;;;;;;;7.24;63.82;103035.88;6298200;27;20230;-71
2023/04/19 04:52:39;;;;;;;3.13;2.13;;;;;;;7.33;62.58;103035.31;6296734;27;20951;-71
2023/04/19 04:56:08;;;;;;;3.40;1.53;;;;;;;7.43;62.44;103030.34;6298856;27;20223;-70
2023/04/19 04:59:29;;;;;;;3.27;2.50;;;;;;;7.52;61.76;103037.66;6294617;28;20230;-70
2023/04/19 05:02:52;;;;;;;2.37;2.17;;;;;;;7.52;61.37;103032.41;6292824;27;20591;-69
2023/04/19 05:06:13;;;;;;;2.00;1.90;;;;;;;7.62;60.72;103033.53;6301275;28;20230;-71
2023/04/19 05:09:35;;;;;;;1.70;1.60;;;;;;;7.69;60.14;103034.81;6305029;28;20309;-71
2023/04/19 05:12:56;;;;;;;3.37;2.50;;;;;;;7.74;59.58;103029.28;6309671;27;20612;-69
2023/04/19 05:16:18;;;;;;;2.23;2.00;;;;;;;7.85;59.16;103027.69;6305562;27;21589;-70
2023/04/19 05:19:42;;;;;;;1.47;1.37;;;;;;;7.84;59.19;103028.63;6306494;28;20245;-71
2023/04/19 05:23:04;;;;;;;2.13;2.03;;;;;;;7.86;58.66;103024.09;6297492;27;20234;-70
2023/04/19 05:26:28;;;;;;;3.17;2.33;;;;;;;7.89;57.52;103034.44;6293106;28;20226;-70
2023/04/19 05:29:50;;;;;;;1.77;1.43;;;;;;;7.89;56.73;103030.97;6298791;27;20231;-70
2023/04/19 05:33:11;;;;;;;3.07;1.67;;;;;;;7.93;57.21;103024.53;6294800;27;20221;-69
2023/04/19 05:36:34;;;;;;;2.57;1.80;;;;;;;7.93;56.48;103029.78;6293776;28;20318;-71
2023/04/19 05:39:56;;;;;;;1.40;1.30;;;;;;;7.87;56.31;103019.69;6298267;28;20757;-70
2023/04/19 05:43:16;;;;;;;3.00;2.23;;;;;;;8.00;55.68;103017.09;6300595;27;20234;-69
2023/04/19 05:46:38;;;;;;;5.53;1.83;;;;;;;8.05;55.52;103015.03;6300821;27;20682;-70
2023/04/19 05:50:00;;;;;;;2.47;2.10;;;;;;;8.13;55.09;103020.66;6284821;28;20230;-70
2023/04/19 05:53:36;;;;;;;2.83;2.23;;;;;;;8.14;54.26;103017.06;6284351;27;20234;-72
2023/04/19 05:56:57;;;;;;;5.53;1.67;;;;;;;8.15;54.22;103014.31;6279748;27;20222;-71
2023/04/19 06:00:18;;;;;;;3.23;2.67;;;;;;;8.25;53.92;103006.69;6295935;27;20226;-72
2023/04/19 06:03:51;;;;;;;3.30;1.50;;;;;;;8.26;53.46;103010.16;6261441;27;20237;-69
2023/04/19 06:07:13;;;;;;;2.30;1.83;;;;;;;8.42;53.97;103011.72;6298055;27;20246;-71
2023/04/19 06:10:36;;;;;;;2.90;1.80;;;;;;;8.54;52.60;103013.56;6311121;27;20234;-71
2023/04/19 06:13:57;;;;;;;2.97;1.97;;;;;;;8.55;51.49;103011.75;6289552;28;20302;-70
2023/04/19 06:17:22;;;;;;;3.07;2.77;;;;;;;8.60;51.88;103006.16;6289774;27;20332;-74
2023/04/19 06:20:43;;;;;;;3.27;1.80;;;;;;;8.68;51.79;103002.09;6310037;27;20218;-75
2023/04/19 06:24:05;;;;;;;25.00;3.47;;;;;;;8.73;50.83;103012.31;6306149;27;20461;-74
2023/04/19 06:27:27;;;;;;;55.10;9.33;;;;;;;8.80;50.32;103011.81;6301004;28;20218;-72
2023/04/19 06:30:48;;;;;;;5.63;1.93;;;;;;;8.90;49.96;103012.00;6310875;27;20314;-71
2023/04/19 06:34:09;;;;;;;2.80;1.00;;;;;;;8.90;49.58;103007.59;6310688;27;20225;-70
2023/04/19 06:37:30;;;;;;;4.60;1.20;;;;;;;8.94;49.53;103005.59;6303944;27;20645;-69
2023/04/19 06:40:51;;;;;;;2.50;1.47;;;;;;;8.96;49.76;103006.34;6300926;28;20226;-69
2023/04/19 06:44:13;;;;;;;1.70;0.90;;;;;;;9.06;48.63;103002.09;6302675;28;20227;-70
2023/04/19 06:47:34;;;;;;;2.67;0.93;;;;;;;9.13;48.11;102998.09;6294553;27;20246;-70
2023/04/19 06:50:55;;;;;;;0.83;0.83;;;;;;;9.19;47.51;102999.47;6300426;27;20230;-69
2023/04/19 06:54:16;;;;;;;1.43;1.00;;;;;;;9.27;47.19;102994.50;6306750;27;20238;-69
2023/04/19 06:57:37;;;;;;;1.10;1.10;;;;;;;9.40;46.73;102995.34;6295793;27;20489;-70
2023/04/19 07:01:00;;;;;;;0.60;0.60;;;;;;;9.52;45.88;102993.63;6297361;28;20230;-71
2023/04/19 07:04:20;;;;;;;1.07;1.00;;;;;;;9.53;45.07;102985.59;6298964;27;20230;-69
2023/04/19 07:07:42;;;;;;;1.00;1.00;;;;;;;9.57;45.47;102994.13;6289951;28;20239;-71
2023/04/19 07:11:02;;;;;;;1.07;0.83;;;;;;;9.79;45.52;102985.53;6306957;28;20226;-69
2023/04/19 07:14:23;;;;;;;2.37;1.70;;;;;;;9.89;44.87;102978.66;6297504;28;20223;-69
2023/04/19 07:17:45;;;;;;;0.70;0.70;;;;;;;9.90;44.14;102983.81;6299802;28;20219;-72
2023/04/19 07:21:07;;;;;;;0.80;0.80;;;;;;;10.03;45.08;102985.56;6299242;28;20592;-71
2023/04/19 07:24:29;;;;;;;0.87;0.87;;;;;;;10.23;44.01;102982.31;6283294;28;20235;-70
2023/04/19 07:27:50;;;;;;;0.93;0.70;;;;;;;10.27;43.16;102973.22;6301889;28;20230;-70
2023/04/19 07:31:15;;;;;;;0.60;0.60;;;;;;;10.26;42.87;102975.00;6292235;28;20234;-70
2023/04/19 07:34:38;;;;;;;0.77;0.67;;;;;;;10.32;42.85;102976.38;6316787;28;20608;-71
2023/04/19 07:37:59;;;;;;;0.80;0.80;;;;;;;10.43;42.70;102965.81;6302937;28;20229;-71
2023/04/19 07:41:20;;;;;;;0.40;0.40;;;;;;;10.59;42.77;102968.16;6298649;28;20431;-70
2023/04/19 07:44:41;;;;;;;1.40;0.87;;;;;;;10.67;41.83;102970.22;6305730;28;21047;-70
2023/04/19 07:48:02;;;;;;;1.17;0.67;;;;;;;10.81;41.73;102968.22;6312192;27;20584;-72
2023/04/19 07:51:25;;;;;;;0.53;0.53;;;;;;;10.87;41.70;102972.16;6307549;28;20505;-70
2023/04/19 07:54:46;;;;;;;0.60;0.60;;;;;;;10.88;41.14;102960.63;6314238;28;20246;-70
2023/04/19 07:58:06;;;;;;;0.77;0.70;;;;;;;11.06;41.35;102968.97;6306911;27;20297;-69
2023/04/19 08:01:28;;;;;;;0.87;0.70;;;;;;;11.19;41.14;102961.75;6307011;28;20227;-70
2023/04/19 08:04:50;;;;;;;0.67;0.67;;;;;;;11.07;40.86;102965.34;6297895;28;20238;-71
2023/04/19 08:08:13;;;;;;;0.93;0.53;;;;;;;11.18;41.02;102966.19;6301056;27;20299;-69
2023/04/19 08:11:33;;;;;;;1.53;1.03;;;;;;;11.25;40.72;102972.69;6274782;28;20281;-70
2023/04/19 08:14:54;;;;;;;0.60;0.60;;;;;;;11.38;40.97;102974.34;6307566;27;20230;-70
2023/04/19 08:18:15;;;;;;;2.33;1.50;;;;;;;11.58;40.91;102957.72;6300927;27;20225;-72
2023/04/19 08:21:36;;;;;;;1.03;1.00;;;;;;;11.74;39.95;102952.06;6274214;28;20659;-71
2023/04/19 08:24:58;;;;;;;1.00;0.90;;;;;;;11.84;40.21;102947.72;6302086;27;20231;-70
2023/04/19 08:28:19;;;;;;;0.90;0.90;;;;;;;11.96;39.91;102952.88;6299450;27;20237;-69
2023/04/19 08:31:43;;;;;;;0.63;0.63;;;;;;;11.85;39.04;102949.41;6277292;28;20238;-71
2023/04/19 08:35:07;;;;;;;2.53;2.33;;;;;;;11.82;38.75;102947.84;6321740;27;20222;-70
2023/04/19 08:38:27;;;;;;;1.30;1.20;;;;;;;11.85;38.96;102947.59;6318500;27;20230;-71
2023/04/19 08:41:50;;;;;;;1.37;0.63;;;;;;;11.86;38.49;102943.13;6302051;27;20247;-70
2023/04/19 08:45:12;;;;;;;1.00;0.90;;;;;;;11.82;38.54;102947.84;6305470;27;20279;-70
2023/04/19 08:48:35;;;;;;;1.43;1.33;;;;;;;12.02;38.76;102934.78;6308219;27;20221;-71
2023/04/19 08:51:57;;;;;;;1.03;0.87;;;;;;;12.20;38.13;102927.97;6298474;27;20241;-69
2023/04/19 08:55:19;;;;;;;0.70;0.70;;;;;;;12.35;38.55;102936.44;6315690;28;20253;-70
2023/04/19 08:58:41;;;;;;;1.93;1.00;;;;;;;12.40;37.13;102921.84;6307972;27;20229;-72
2023/04/19 09:02:02;;;;;;;1.27;0.97;;;;;;;12.40;36.91;102921.84;6294678;27;20221;-72
2023/04/19 09:05:23;;;;;;;2.43;0.77;;;;;;;12.53;36.71;102909.22;6308528;28;20627;-69
2023/04/19 09:08:44;;;;;;;0.90;0.80;;;;;;;12.59;35.86;102908.72;6310232;27;20611;-70
2023/04/19 09:12:16;;;;;;;1.23;1.13;;;;;;;12.47;34.95;102923.00;6302475;27;20229;-68
2023/04/19 09:15:43;;;;;;;2.70;0.90;;;;;;;12.52;35.33;102912.84;6310753;27;20326;-70
2023/04/19 09:19:04;;;;;;;0.93;0.93;;;;;;;12.58;34.56;102919.44;6305068;27;20659;-71
2023/04/19 09:22:25;;;;;;;1.20;1.10;;;;;;;12.68;33.07;102915.00;6291827;28;20516;-71
2023/04/19 09:25:52;;;;;;;1.10;0.90;;;;;;;12.60;31.29;102907.75;6305880;27;20235;-70
2023/04/19 09:29:16;;;;;;;1.40;1.20;;;;;;;12.63;32.01;102904.84;6311228;27;20218;-68
2023/04/19 09:32:48;;;;;;;4.37;0.60;;;;;;;12.61;30.93;102904.13;6291812;27;20237;-70
2023/04/19 09:36:09;;;;;;;1.37;1.27;;;;;;;12.64;31.52;102906.53;6297098;28;20297;-71
2023/04/19 09:39:31;;;;;;;1.83;1.43;;;;;;;12.70;29.94;102886.56;6303427;28;20226;-70
2023/04/19 09:42:52;;;;;;;2.83;0.87;;;;;;;12.81;29.26;102880.38;6309761;27;20234;-71
2023/04/19 09:46:31;;;;;;;1.53;1.10;;;;;;;12.97;29.31;102876.25;6318457;28;20230;-70
2023/04/19 09:50:08;;;;;;;2.23;1.00;;;;;;;13.05;29.82;102874.75;6304746;28;20254;-70
2023/04/19 09:53:32;;;;;;;1.77;1.63;;;;;;;13.08;30.30;102864.69;6315376;27;20221;-71
2023/04/19 09:56:54;;;;;;;3.17;1.50;;;;;;;13.29;28.70;102862.84;6300867;27;20222;-70
2023/04/19 10:00:15;;;;;;;2.20;1.90;;;;;;;13.36;28.39;102857.78;6317170;27;20608;-71
2023/04/19 10:03:36;;;;;;;1.67;1.57;;;;;;;13.36;26.14;102857.78;6315880;28;20221;-70
2023/04/19 10:06:59;;;;;;;2.70;1.43;;;;;;;13.42;25.67;102857.25;6302949;28;20594;-70
2023/04/19 10:10:21;;;;;;;0.80;0.80;;;;;;;13.44;25.29;102857.13;6319485;27;20267;-70
2023/04/19 10:13:44;;;;;;;3.17;1.57;;;;;;;13.55;25.62;102838.44;6313364;27;20591;-70
2023/04/19 10:17:05;;;;;;;4.23;1.23;;;;;;;13.76;25.07;102836.47;6299553;27;20217;-70
2023/04/19 10:20:32;;;;;;;2.23;0.90;;;;;;;13.76;24.24;102833.81;6323243;27;20231;-70
2023/04/19 10:23:55;;;;;;;1.57;1.47;;;;;;;13.78;24.42;102826.53;6321644;27;20259;-71
2023/04/19 10:27:16;;;;;;;1.63;1.00;;;;;;;13.87;23.83;102825.69;6313327;28;20768;-70
2023/04/19 10:30:52;;;;;;;1.17;1.17;;;;;;;13.97;23.78;102825.69;6314094;27;20658;-71
2023/04/19 10:34:13;;;;;;;3.73;1.20;;;;;;;13.88;22.60;102824.72;6320065;27;20222;-71
2023/04/19 10:37:34;;;;;;;2.87;1.60;;;;;;;13.90;22.52;102813.97;6317691;27;20218;-70
2023/04/19 10:41:02;;;;;;;1.10;1.00;;;;;;;13.95;22.84;102827.66;6317531;27;20353;-70
2023/04/19 10:44:23;;;;;;;1.27;0.97;;;;;;;14.04;22.55;102805.53;6314830;27;20240;-71
2023/04/19 10:47:44;;;;;;;2.90;1.40;;;;;;;14.11;21.18;102811.97;6309801;28;20230;-71
2023/04/19 10:51:13;;;;;;;2.07;1.97;;;;;;;14.05;21.39;102817.84;6314619;28;20271;-70
2023/04/19 10:54:36;;;;;;;1.67;1.57;;;;;;;14.09;20.65;102811.25;6311890;28;20245;-71
2023/04/19 10:58:05;;;;;;;2.00;1.77;;;;;;;14.43;21.54;102798.34;6313371;28;20233;-70
2023/04/19 11:01:33;;;;;;;1.40;1.30;;;;;;;14.66;21.62;102802.28;6288715;28;20234;-70
2023/04/19 11:05:04;;;;;;;2.97;1.87;;;;;;;14.65;20.24;102784.66;6297592;28;20265;-69
2023/04/19 11:08:25;;;;;;;2.07;1.97;;;;;;;14.71;19.94;102788.53;6306929;28;20255;-68
2023/04/19 11:11:46;;;;;;;1.47;1.37;;;;;;;14.80;20.19;102800.13;6300322;28;20534;-69
2023/04/19 11:15:10;;;;;;;4.80;1.87;;;;;;;14.83;19.11;102798.00;6317110;27;20782;-68
2023/04/19 11:18:31;;;;;;;4.80;3.23;;;;;;;14.56;19.29;102784.72;6315392;27;20265;-69
2023/04/19 11:21:52;;;;;;;2.33;1.73;;;;;;;14.85;19.76;102796.03;6292341;28;20226;-72
2023/04/19 11:25:16;;;;;;;0.90;0.90;;;;;;;14.97;19.74;102759.41;6312917;28;20261;-71
2023/04/19 11:28:37;;;;;;;2.83;1.77;;;;;;;15.50;19.88;102764.75;6303265;28;20229;-76
2023/04/19 11:32:01;;;;;;;6.53;1.53;;;;;;;15.53;19.59;102761.78;6295852;28;20496;-74
2023/04/19 11:35:23;;;;;;;2.13;1.73;;;;;;;15.94;19.50;102757.63;6314127;28;20234;-70
2023/04/19 11:38:47;;;;;;;1.57;1.00;;;;;;;15.64;19.41;102766.03;6315567;28;20610;-73
2023/04/19 11:42:17;;;;;;;1.10;1.00;;;;;;;16.65;18.91;102748.50;6310231;28;20240;-69
2023/04/19 11:45:38;;;;;;;1.33;1.27;;;;;;;17.51;17.61;102745.44;6306434;28;20670;-69
2023/04/19 11:49:01;;;;;;;1.00;0.77;;;;;;;19.69;14.77;102751.63;6300787;28;20223;-70
2023/04/19 11:52:23;;;;;;;1.50;1.40;;;;;;;22.88;12.15;102741.00;6303109;28;20226;-71
2023/04/19 11:55:49;;;;;;;2.20;1.20;;;;;;;24.82;10.56;102721.38;6309354;28;20241;-71
2023/04/19 11:59:10;;;;;;;2.20;1.17;;;;;;;26.54;9.65;102723.28;6303811;28;20609;-68
2023/04/19 12:02:31;;;;;;;1.85;1.40;;;;;;;25.35;9.14;102729.09;6301965;28;20222;-71
2023/04/19 12:05:55;;;;;;;1.70;1.52;;;;;;;24.90;9.77;102734.59;6309485;28;20229;-70
2023/04/19 12:09:22;;;;;;;1.55;1.45;;;;;;;24.75;9.96;102734.09;6307348;28;20253;-72
2023/04/19 12:12:44;;;;;;;2.08;1.42;;;;;;;27.35;9.16;102717.22;6296576;28;20229;-71
2023/04/19 12:16:05;;;;;;;1.52;1.42;;;;;;;27.07;8.34;102722.53;6301035;28;20256;-71
2023/04/19 12:19:26;;;;;;;1.60;1.38;;;;;;;27.85;7.73;102709.47;6303857;28;20226;-71
2023/04/19 12:22:48;;;;;;;2.90;1.40;;;;;;;25.75;8.95;102716.09;6307411;28;20230;-70
2023/04/19 12:26:10;;;;;;;1.35;1.25;;;;;;;26.36;9.42;102720.59;6308495;28;20229;-71
2023/04/19 12:29:31;;;;;;;2.80;1.25;;;;;;;26.03;9.09;102713.66;6309229;28;20238;-69
2023/04/19 12:32:54;;;;;;;2.28;1.08;;;;;;;25.84;9.36;102720.97;6298292;27;20222;-72
2023/04/19 12:36:15;;;;;;;3.50;1.38;;;;;;;24.60;10.16;102723.59;6308971;27;20234;-72
2023/04/19 12:39:36;;;;;;;1.17;1.17;;;;;;;25.67;8.72;102700.13;6314044;28;20271;-71
2023/04/19 12:42:58;;;;;;;2.80;1.17;;;;;;;25.34;9.44;102706.66;6298182;27;20591;-75
2023/04/19 12:46:19;;;;;;;1.67;1.15;;;;;;;25.87;8.99;102706.16;6297852;27;20231;-77
2023/04/19 12:49:40;;;;;;;1.42;1.33;;;;;;;26.41;9.02;102712.63;6295803;28;20310;-73
2023/04/19 12:53:01;;;;;;;1.17;0.82;;;;;;;25.14;9.65;102705.97;6306674;27;20267;-70
2023/04/19 12:56:23;;;;;;;1.02;1.02;;;;;;;26.84;9.23;102699.69;6303373;28;20601;-72
2023/04/19 12:59:44;;;;;;;1.00;0.90;;;;;;;27.53;8.71;102694.63;6315268;28;20231;-75
2023/04/19 13:03:05;;;;;;;1.02;1.02;;;;;;;26.99;9.54;102691.16;6305718;27;20502;-70
2023/04/19 13:06:26;;;;;;;3.15;1.10;;;;;;;25.31;9.79;102693.56;6310452;28;20325;-70
2023/04/19 13:09:47;;;;;;;2.97;1.17;;;;;;;24.42;10.83;102694.56;6315537;28;20301;-72
2023/04/19 13:13:09;;;;;;;2.20;1.63;;;;;;;25.15;10.43;102689.56;6312973;27;20309;-73
2023/04/19 13:16:30;;;;;;;2.15;0.80;;;;;;;26.49;10.05;102696.88;6288031;28;20230;-70
2023/04/19 13:19:51;;;;;;;1.30;1.20;;;;;;;27.47;8.92;102679.28;6309287;27;20313;-74
2023/04/19 13:23:12;;;;;;;3.75;1.67;;;;;;;27.81;8.75;102667.56;6304303;27;20252;-65
2023/04/19 13:26:33;;;;;;;1.23;0.95;;;;;;;25.48;15.36;102683.84;6283422;28;20563;-70
2023/04/19 13:29:56;;;;;;;2.25;1.10;;;;;;;25.03;10.95;102679.69;6304337;28;20231;-72
2023/04/19 13:33:17;;;;;;;9.43;1.40;;;;;;;27.76;9.94;102670.19;6302490;27;20229;-71
2023/04/19 13:36:39;;;;;;;1.92;1.40;;;;;;;25.64;10.23;102687.06;6285569;28;22146;-72
2023/04/19 13:40:02;;;;;;;2.50;1.15;;;;;;;24.27;10.63;102675.13;6308954;27;20231;-73
2023/04/19 13:43:23;;;;;;;2.42;1.88;;;;;;;24.54;10.05;102670.44;6307993;27;20245;-71
2023/04/19 13:46:45;;;;;;;2.97;1.45;;;;;;;22.91;11.90;102670.56;6301658;28;20328;-72
2023/04/19 13:50:07;;;;;;;6.45;2.83;;;;;;;23.50;12.38;102676.75;6311848;27;20235;-73
2023/04/19 13:53:28;;;;;;;2.45;1.55;;;;;;;22.93;11.32;102663.94;6311308;28;20230;-72
2023/04/19 13:56:49;;;;;;;4.40;2.08;;;;;;;23.22;11.61;102665.41;6300122;27;20295;-71
2023/04/19 14:00:10;;;;;;;2.55;1.17;;;;;;;22.88;13.22;102662.91;6322007;27;20222;-73
2023/04/19 14:03:33;;;;;;;1.25;1.15;;;;;;;20.81;13.33;102656.53;6266872;28;20237;-72
2023/04/19 14:06:54;;;;;;;1.00;1.00;;;;;;;20.77;13.49;102654.44;6291651;28;20242;-71
2023/04/19 14:10:14;;;;;;;4.60;2.60;;;;;;;21.37;14.69;102655.81;6316892;27;22449;-73
2023/04/19 14:13:35;;;;;;;1.98;1.60;;;;;;;20.58;14.61;102658.56;6317378;27;20234;-75
2023/04/19 14:16:56;;;;;;;3.85;1.40;;;;;;;20.73;15.27;102648.63;6310339;27;20229;-74
2023/04/19 14:20:19;;;;;;;3.45;1.75;;;;;;;19.98;15.25;102657.00;6305896;27;20234;-71
2023/04/19 14:23:39;;;;;;;4.20;2.67;;;;;;;19.85;16.85;102648.81;6294179;27;20221;-70
2023/04/19 14:27:00;;;;;;;4.13;2.17;;;;;;;17.39;17.09;102641.69;6292433;27;20237;-69
2023/04/19 14:30:21;;;;;;;2.35;1.63;;;;;;;18.14;18.49;102638.63;6294073;27;20242;-70
2023/04/19 14:33:42;;;;;;;2.13;1.92;;;;;;;17.66;19.41;102635.13;6312358;27;20233;-71
2023/04/19 14:37:04;;;;;;;1.63;1.52;;;;;;;17.84;18.89;102632.25;6292484;28;20230;-70
2023/04/19 14:40:25;;;;;;;1.55;1.00;;;;;;;17.76;17.91;102624.25;6276513;28;20222;-75
2023/04/19 14:43:46;;;;;;;2.45;1.83;;;;;;;18.19;18.43;102616.72;6304495;27;20246;-74
2023/04/19 14:47:08;;;;;;;1.42;1.33;;;;;;;18.04;17.35;102621.97;6295411;28;20230;-74
2023/04/19 14:50:28;;;;;;;1.73;1.50;;;;;;;17.86;18.16;102624.03;6313217;28;20592;-74
2023/04/19 14:53:50;;;;;;;4.32;1.83;;;;;;;17.86;19.02;102634.72;6310819;27;20258;-74
2023/04/19 14:57:13;;;;;;;3.10;1.13;;;;;;;17.56;18.90;102626.44;6306356;28;20231;-74
2023/04/19 15:00:34;;;;;;;3.22;2.78;;;;;;;17.49;18.16;102613.94;6294385;28;20250;-74
2023/04/19 15:03:55;;;;;;;3.13;1.85;;;;;;;17.53;17.87;102613.44;6300600;28;20334;-73
2023/04/19 15:07:16;;;;;;;2.40;1.25;;;;;;;17.40;17.52;102621.97;6294411;28;20238;-73
2023/04/19 15:10:38;;;;;;;3.40;1.75;;;;;;;17.13;18.58;102616.19;6303809;27;20599;-75
2023/04/19 15:14:01;;;;;;;4.33;3.00;;;;;;;17.15;18.37;102631.03;6301392;27;20616;-72
2023/04/19 15:17:21;;;;;;;3.80;2.23;;;;;;;17.67;20.84;102614.59;6292722;28;20233;-73
2023/04/19 15:20:43;;;;;;;3.23;1.43;;;;;;;17.60;16.97;102605.59;6297956;28;20238;-74
2023/04/19 15:24:06;;;;;;;1.95;1.70;;;;;;;17.74;19.05;102604.88;6302702;28;20222;-73
2023/04/19 15:27:28;;;;;;;1.95;1.50;;;;;;;17.78;19.95;102611.56;6289403;28;20226;-72
2023/04/19 15:30:57;;;;;;;1.33;1.23;;;;;;;17.08;19.27;102600.66;6304286;28;20222;-73
2023/04/19 15:34:18;;;;;;;4.17;1.53;;;;;;;17.82;20.07;102594.19;6297384;28;20312;-71
2023/04/19 15:37:40;;;;;;;1.40;1.30;;;;;;;17.45;15.68;102592.09;6304767;28;20222;-70
2023/04/19 15:41:00;;;;;;;6.15;1.27;;;;;;;16.84;15.99;102596.19;6297117;28;20230;-71
2023/04/19 15:44:23;;;;;;;0.90;0.85;;;;;;;17.08;19.85;102604.19;6309757;28;20227;-71
2023/04/19 15:47:43;;;;;;;1.63;1.53;;;;;;;16.61;14.66;102598.63;6305035;28;20233;-70